sensor_id;sensor_type;location;lat;lon;timestamp;P1;durP1;ratioP1;P2;durP2;ratioP2
21480;SDS011;10902;48.158;8.634;2023-11-21T00:00:36;3.22;;;0.68;;
21480;SDS011;10902;48.158;8.634;2023-11-21T00:03:22;4.00;;;0.95;;
21480;SDS011;10902;48.158;8.634;2023-11-21T00:06:08;5.18;;;0.80;;
21480;SDS011;10902;48.158;8.634;2023-11-21T00:08:54;3.25;;;0.70;;
21480;SDS011;10902;48.158;8.634;2023-11-21T00:11:39;5.75;;;1.08;;
21480;SDS011;10902;48.158;8.634;2023-11-21T00:14:25;4.93;;;0.90;;
21480;SDS011;10902;48.158;8.634;2023-11-21T00:17:10;3.60;;;0.90;;
21480;SDS011;10902;48.158;8.634;2023-11-21T00:19:56;3.90;;;0.82;;
21480;SDS011;10902;48.158;8.634;2023-11-21T00:22:42;5.38;;;1.00;;
21480;SDS011;10902;48.158;8.634;2023-11-21T00:25:27;4.00;;;0.90;;
21480;SDS011;10902;48.158;8.634;2023-11-21T00:28:13;4.72;;;0.70;;
21480;SDS011;10902;48.158;8.634;2023-11-21T00:30:59;4.40;;;0.80;;
21480;SDS011;10902;48.158;8.634;2023-11-21T00:33:44;4.18;;;0.70;;
21480;SDS011;10902;48.158;8.634;2023-11-21T00:36:30;3.58;;;0.70;;
21480;SDS011;10902;48.158;8.634;2023-11-21T00:39:17;5.43;;;0.85;;
21480;SDS011;10902;48.158;8.634;2023-11-21T00:42:03;4.43;;;0.80;;
21480;SDS011;10902;48.158;8.634;2023-11-21T00:44:49;3.92;;;0.80;;
21480;SDS011;10902;48.158;8.634;2023-11-21T00:47:35;4.55;;;1.00;;
21480;SDS011;10902;48.158;8.634;2023-11-21T00:50:21;6.07;;;0.88;;
21480;SDS011;10902;48.158;8.634;2023-11-21T00:53:07;5.82;;;1.20;;
21480;SDS011;10902;48.158;8.634;2023-11-21T00:55:52;7.70;;;1.52;;
21480;SDS011;10902;48.158;8.634;2023-11-21T00:58:42;7.68;;;1.52;;
21480;SDS011;10902;48.158;8.634;2023-11-21T01:01:31;5.85;;;1.40;;
21480;SDS011;10902;48.158;8.634;2023-11-21T01:04:17;7.18;;;2.45;;
21480;SDS011;10902;48.158;8.634;2023-11-21T01:07:02;6.40;;;1.52;;
21480;SDS011;10902;48.158;8.634;2023-11-21T01:09:50;4.03;;;1.02;;
21480;SDS011;10902;48.158;8.634;2023-11-21T01:12:36;3.83;;;1.42;;
21480;SDS011;10902;48.158;8.634;2023-11-21T01:15:22;6.45;;;1.13;;
21480;SDS011;10902;48.158;8.634;2023-11-21T01:18:10;5.35;;;1.33;;
21480;SDS011;10902;48.158;8.634;2023-11-21T01:21:08;5.65;;;1.27;;
21480;SDS011;10902;48.158;8.634;2023-11-21T01:24:03;6.03;;;1.20;;
21480;SDS011;10902;48.158;8.634;2023-11-21T01:26:52;2.22;;;0.70;;
21480;SDS011;10902;48.158;8.634;2023-11-21T01:29:37;6.70;;;0.90;;
21480;SDS011;10902;48.158;8.634;2023-11-21T01:32:23;5.38;;;1.10;;
21480;SDS011;10902;48.158;8.634;2023-11-21T01:35:10;5.90;;;1.27;;
21480;SDS011;10902;48.158;8.634;2023-11-21T01:37:55;5.68;;;0.98;;
21480;SDS011;10902;48.158;8.634;2023-11-21T01:40:41;2.92;;;0.80;;
21480;SDS011;10902;48.158;8.634;2023-11-21T01:43:27;4.78;;;1.13;;
21480;SDS011;10902;48.158;8.634;2023-11-21T01:46:12;3.72;;;0.77;;
21480;SDS011;10902;48.158;8.634;2023-11-21T01:49:00;4.68;;;0.70;;
21480;SDS011;10902;48.158;8.634;2023-11-21T01:51:47;5.28;;;1.00;;
21480;SDS011;10902;48.158;8.634;2023-11-21T01:54:34;4.93;;;0.80;;
21480;SDS011;10902;48.158;8.634;2023-11-21T01:57:22;4.47;;;0.98;;
21480;SDS011;10902;48.158;8.634;2023-11-21T02:00:07;4.47;;;0.80;;
21480;SDS011;10902;48.158;8.634;2023-11-21T02:03:04;5.70;;;1.00;;
21480;SDS011;10902;48.158;8.634;2023-11-21T02:05:49;6.57;;;1.30;;
21480;SDS011;10902;48.158;8.634;2023-11-21T02:08:35;4.18;;;0.90;;
21480;SDS011;10902;48.158;8.634;2023-11-21T02:11:22;3.92;;;1.27;;
21480;SDS011;10902;48.158;8.634;2023-11-21T02:14:09;5.03;;;1.15;;
21480;SDS011;10902;48.158;8.634;2023-11-21T02:16:55;7.43;;;1.23;;
21480;SDS011;10902;48.158;8.634;2023-11-21T02:19:42;6.18;;;1.02;;
21480;SDS011;10902;48.158;8.634;2023-11-21T02:22:29;5.20;;;1.38;;
21480;SDS011;10902;48.158;8.634;2023-11-21T02:25:17;7.20;;;1.38;;
21480;SDS011;10902;48.158;8.634;2023-11-21T02:28:03;4.68;;;1.10;;
21480;SDS011;10902;48.158;8.634;2023-11-21T02:30:49;5.10;;;0.95;;
21480;SDS011;10902;48.158;8.634;2023-11-21T02:33:40;2.80;;;0.90;;
21480;SDS011;10902;48.158;8.634;2023-11-21T02:36:26;4.90;;;1.30;;
21480;SDS011;10902;48.158;8.634;2023-11-21T02:39:11;4.40;;;0.93;;
21480;SDS011;10902;48.158;8.634;2023-11-21T02:41:58;2.70;;;0.80;;
21480;SDS011;10902;48.158;8.634;2023-11-21T02:44:43;3.03;;;0.75;;
21480;SDS011;10902;48.158;8.634;2023-11-21T02:47:29;4.40;;;0.90;;
21480;SDS011;10902;48.158;8.634;2023-11-21T02:50:15;3.58;;;0.70;;
21480;SDS011;10902;48.158;8.634;2023-11-21T02:53:00;3.63;;;0.50;;
21480;SDS011;10902;48.158;8.634;2023-11-21T02:55:46;2.42;;;0.55;;
21480;SDS011;10902;48.158;8.634;2023-11-21T02:58:32;5.25;;;0.70;;
21480;SDS011;10902;48.158;8.634;2023-11-21T03:01:18;3.42;;;0.60;;
21480;SDS011;10902;48.158;8.634;2023-11-21T03:04:04;3.78;;;0.65;;
21480;SDS011;10902;48.158;8.634;2023-11-21T03:06:49;3.80;;;1.17;;
21480;SDS011;10902;48.158;8.634;2023-11-21T03:09:35;3.53;;;0.85;;
21480;SDS011;10902;48.158;8.634;2023-11-21T03:12:21;4.03;;;0.80;;
21480;SDS011;10902;48.158;8.634;2023-11-21T03:15:06;2.95;;;0.80;;
21480;SDS011;10902;48.158;8.634;2023-11-21T03:17:53;1.77;;;0.50;;
21480;SDS011;10902;48.158;8.634;2023-11-21T03:20:39;1.75;;;0.50;;
21480;SDS011;10902;48.158;8.634;2023-11-21T03:23:24;1.67;;;0.50;;
21480;SDS011;10902;48.158;8.634;2023-11-21T03:26:13;3.20;;;0.77;;
21480;SDS011;10902;48.158;8.634;2023-11-21T03:28:59;3.88;;;0.77;;
21480;SDS011;10902;48.158;8.634;2023-11-21T03:31:44;1.83;;;0.55;;
21480;SDS011;10902;48.158;8.634;2023-11-21T03:34:30;3.65;;;0.70;;
21480;SDS011;10902;48.158;8.634;2023-11-21T03:37:15;3.75;;;1.13;;
21480;SDS011;10902;48.158;8.634;2023-11-21T03:40:01;2.78;;;0.88;;
21480;SDS011;10902;48.158;8.634;2023-11-21T03:42:49;8.00;;;2.17;;
21480;SDS011;10902;48.158;8.634;2023-11-21T03:45:35;3.55;;;1.23;;
21480;SDS011;10902;48.158;8.634;2023-11-21T03:48:20;3.65;;;0.95;;
21480;SDS011;10902;48.158;8.634;2023-11-21T03:51:06;3.47;;;1.00;;
21480;SDS011;10902;48.158;8.634;2023-11-21T03:53:51;4.32;;;1.10;;
21480;SDS011;10902;48.158;8.634;2023-11-21T03:56:37;4.47;;;0.90;;
21480;SDS011;10902;48.158;8.634;2023-11-21T03:59:23;4.45;;;1.25;;
21480;SDS011;10902;48.158;8.634;2023-11-21T04:02:25;3.47;;;0.70;;
21480;SDS011;10902;48.158;8.634;2023-11-21T04:05:11;4.55;;;1.40;;
21480;SDS011;10902;48.158;8.634;2023-11-21T04:07:57;5.80;;;1.05;;
21480;SDS011;10902;48.158;8.634;2023-11-21T04:10:45;3.47;;;0.80;;
21480;SDS011;10902;48.158;8.634;2023-11-21T04:13:31;4.32;;;0.88;;
21480;SDS011;10902;48.158;8.634;2023-11-21T04:16:16;3.97;;;0.88;;
21480;SDS011;10902;48.158;8.634;2023-11-21T04:19:03;4.15;;;0.88;;
21480;SDS011;10902;48.158;8.634;2023-11-21T04:21:49;3.97;;;1.40;;
21480;SDS011;10902;48.158;8.634;2023-11-21T04:24:34;4.30;;;1.30;;
21480;SDS011;10902;48.158;8.634;2023-11-21T04:27:20;5.05;;;1.33;;
21480;SDS011;10902;48.158;8.634;2023-11-21T04:30:22;7.40;;;2.28;;
21480;SDS011;10902;48.158;8.634;2023-11-21T04:33:16;4.35;;;1.15;;
21480;SDS011;10902;48.158;8.634;2023-11-21T04:36:02;4.03;;;1.05;;
21480;SDS011;10902;48.158;8.634;2023-11-21T04:38:48;4.55;;;1.10;;
21480;SDS011;10902;48.158;8.634;2023-11-21T04:41:34;3.42;;;1.10;;
21480;SDS011;10902;48.158;8.634;2023-11-21T04:44:19;2.60;;;0.70;;
21480;SDS011;10902;48.158;8.634;2023-11-21T04:47:05;3.58;;;0.95;;
21480;SDS011;10902;48.158;8.634;2023-11-21T04:49:50;4.03;;;1.30;;
21480;SDS011;10902;48.158;8.634;2023-11-21T04:52:37;5.10;;;1.10;;
21480;SDS011;10902;48.158;8.634;2023-11-21T04:55:22;6.72;;;1.70;;
21480;SDS011;10902;48.158;8.634;2023-11-21T04:58:08;6.28;;;1.50;;
21480;SDS011;10902;48.158;8.634;2023-11-21T05:00:53;6.15;;;1.25;;
21480;SDS011;10902;48.158;8.634;2023-11-21T05:03:39;4.05;;;1.10;;
21480;SDS011;10902;48.158;8.634;2023-11-21T05:06:25;3.85;;;1.20;;
21480;SDS011;10902;48.158;8.634;2023-11-21T05:09:11;4.35;;;1.20;;
21480;SDS011;10902;48.158;8.634;2023-11-21T05:11:57;4.50;;;1.15;;
21480;SDS011;10902;48.158;8.634;2023-11-21T05:14:42;7.63;;;1.75;;
21480;SDS011;10902;48.158;8.634;2023-11-21T05:17:28;5.65;;;1.95;;
21480;SDS011;10902;48.158;8.634;2023-11-21T05:20:14;4.20;;;1.38;;
21480;SDS011;10902;48.158;8.634;2023-11-21T05:23:02;4.07;;;1.48;;
21480;SDS011;10902;48.158;8.634;2023-11-21T05:25:48;5.47;;;1.20;;
21480;SDS011;10902;48.158;8.634;2023-11-21T05:28:34;3.85;;;1.27;;
21480;SDS011;10902;48.158;8.634;2023-11-21T05:31:20;5.40;;;1.23;;
21480;SDS011;10902;48.158;8.634;2023-11-21T05:34:05;3.92;;;1.52;;
21480;SDS011;10902;48.158;8.634;2023-11-21T05:36:51;4.82;;;1.10;;
21480;SDS011;10902;48.158;8.634;2023-11-21T05:39:36;3.03;;;1.27;;
21480;SDS011;10902;48.158;8.634;2023-11-21T05:42:22;4.85;;;1.17;;
21480;SDS011;10902;48.158;8.634;2023-11-21T05:45:08;4.93;;;1.60;;
21480;SDS011;10902;48.158;8.634;2023-11-21T05:47:54;5.72;;;1.60;;
21480;SDS011;10902;48.158;8.634;2023-11-21T05:50:40;4.68;;;1.67;;
21480;SDS011;10902;48.158;8.634;2023-11-21T05:53:26;4.68;;;1.80;;
21480;SDS011;10902;48.158;8.634;2023-11-21T05:56:11;5.18;;;1.85;;
21480;SDS011;10902;48.158;8.634;2023-11-21T05:58:58;4.63;;;1.30;;
21480;SDS011;10902;48.158;8.634;2023-11-21T06:01:44;3.83;;;1.40;;
21480;SDS011;10902;48.158;8.634;2023-11-21T06:04:31;4.18;;;1.45;;
21480;SDS011;10902;48.158;8.634;2023-11-21T06:07:16;4.10;;;1.33;;
21480;SDS011;10902;48.158;8.634;2023-11-21T06:10:05;9.00;;;1.80;;
21480;SDS011;10902;48.158;8.634;2023-11-21T06:13:04;6.50;;;2.38;;
21480;SDS011;10902;48.158;8.634;2023-11-21T06:15:50;8.85;;;1.85;;
21480;SDS011;10902;48.158;8.634;2023-11-21T06:18:36;4.03;;;1.50;;
21480;SDS011;10902;48.158;8.634;2023-11-21T06:21:21;5.80;;;2.08;;
21480;SDS011;10902;48.158;8.634;2023-11-21T06:24:07;7.20;;;3.15;;
21480;SDS011;10902;48.158;8.634;2023-11-21T06:26:53;6.72;;;2.45;;
21480;SDS011;10902;48.158;8.634;2023-11-21T06:29:38;5.15;;;2.20;;
21480;SDS011;10902;48.158;8.634;2023-11-21T06:32:24;6.75;;;2.80;;
21480;SDS011;10902;48.158;8.634;2023-11-21T06:35:11;4.45;;;2.45;;
21480;SDS011;10902;48.158;8.634;2023-11-21T06:38:02;6.85;;;2.72;;
21480;SDS011;10902;48.158;8.634;2023-11-21T06:40:48;7.45;;;2.60;;
21480;SDS011;10902;48.158;8.634;2023-11-21T06:43:34;9.38;;;2.55;;
21480;SDS011;10902;48.158;8.634;2023-11-21T06:46:19;6.25;;;2.50;;
21480;SDS011;10902;48.158;8.634;2023-11-21T06:49:05;4.78;;;2.50;;
21480;SDS011;10902;48.158;8.634;2023-11-21T06:51:51;5.40;;;3.08;;
21480;SDS011;10902;48.158;8.634;2023-11-21T06:54:38;5.13;;;2.70;;
21480;SDS011;10902;48.158;8.634;2023-11-21T06:57:24;8.48;;;3.33;;
21480;SDS011;10902;48.158;8.634;2023-11-21T07:00:09;4.43;;;2.38;;
21480;SDS011;10902;48.158;8.634;2023-11-21T07:02:56;6.30;;;2.60;;
21480;SDS011;10902;48.158;8.634;2023-11-21T07:05:41;6.03;;;2.70;;
21480;SDS011;10902;48.158;8.634;2023-11-21T07:08:27;4.90;;;2.08;;
21480;SDS011;10902;48.158;8.634;2023-11-21T07:11:13;5.85;;;2.55;;
21480;SDS011;10902;48.158;8.634;2023-11-21T07:13:58;7.32;;;2.90;;
21480;SDS011;10902;48.158;8.634;2023-11-21T07:16:44;6.93;;;3.10;;
21480;SDS011;10902;48.158;8.634;2023-11-21T07:19:30;7.15;;;3.20;;
21480;SDS011;10902;48.158;8.634;2023-11-21T07:22:15;6.65;;;3.25;;
21480;SDS011;10902;48.158;8.634;2023-11-21T07:25:06;6.05;;;2.85;;
21480;SDS011;10902;48.158;8.634;2023-11-21T07:27:52;5.18;;;2.88;;
21480;SDS011;10902;48.158;8.634;2023-11-21T07:30:40;6.10;;;2.50;;
21480;SDS011;10902;48.158;8.634;2023-11-21T07:33:25;5.43;;;2.60;;
21480;SDS011;10902;48.158;8.634;2023-11-21T07:36:11;5.85;;;2.42;;
21480;SDS011;10902;48.158;8.634;2023-11-21T07:38:56;6.72;;;3.45;;
21480;SDS011;10902;48.158;8.634;2023-11-21T07:41:42;6.30;;;2.40;;
21480;SDS011;10902;48.158;8.634;2023-11-21T07:44:33;4.20;;;1.88;;
21480;SDS011;10902;48.158;8.634;2023-11-21T07:47:18;7.60;;;2.20;;
21480;SDS011;10902;48.158;8.634;2023-11-21T07:50:04;4.93;;;2.13;;
21480;SDS011;10902;48.158;8.634;2023-11-21T07:52:52;5.25;;;1.77;;
21480;SDS011;10902;48.158;8.634;2023-11-21T07:55:39;4.35;;;1.80;;
21480;SDS011;10902;48.158;8.634;2023-11-21T07:58:25;7.13;;;2.58;;
21480;SDS011;10902;48.158;8.634;2023-11-21T08:01:10;7.03;;;2.50;;
21480;SDS011;10902;48.158;8.634;2023-11-21T08:03:56;8.80;;;4.15;;
21480;SDS011;10902;48.158;8.634;2023-11-21T08:06:46;8.18;;;2.78;;
21480;SDS011;10902;48.158;8.634;2023-11-21T08:09:32;7.18;;;4.10;;
21480;SDS011;10902;48.158;8.634;2023-11-21T08:12:19;6.70;;;4.43;;
21480;SDS011;10902;48.158;8.634;2023-11-21T08:15:05;7.38;;;4.60;;
21480;SDS011;10902;48.158;8.634;2023-11-21T08:17:52;8.65;;;4.07;;
21480;SDS011;10902;48.158;8.634;2023-11-21T08:20:37;8.18;;;4.10;;
21480;SDS011;10902;48.158;8.634;2023-11-21T08:23:24;6.43;;;4.03;;
21480;SDS011;10902;48.158;8.634;2023-11-21T08:26:10;6.85;;;4.20;;
21480;SDS011;10902;48.158;8.634;2023-11-21T08:28:56;6.15;;;3.53;;
21480;SDS011;10902;48.158;8.634;2023-11-21T08:31:41;9.13;;;4.05;;
21480;SDS011;10902;48.158;8.634;2023-11-21T08:34:27;6.75;;;3.58;;
21480;SDS011;10902;48.158;8.634;2023-11-21T08:37:14;5.82;;;3.35;;
21480;SDS011;10902;48.158;8.634;2023-11-21T08:40:00;6.78;;;3.80;;
21480;SDS011;10902;48.158;8.634;2023-11-21T08:42:47;7.78;;;4.60;;
21480;SDS011;10902;48.158;8.634;2023-11-21T08:45:33;6.57;;;3.85;;
21480;SDS011;10902;48.158;8.634;2023-11-21T08:48:19;6.90;;;3.97;;
21480;SDS011;10902;48.158;8.634;2023-11-21T08:51:13;6.35;;;3.70;;
21480;SDS011;10902;48.158;8.634;2023-11-21T08:53:59;6.95;;;3.28;;
21480;SDS011;10902;48.158;8.634;2023-11-21T08:56:47;6.05;;;2.85;;
21480;SDS011;10902;48.158;8.634;2023-11-21T08:59:32;7.35;;;3.60;;
21480;SDS011;10902;48.158;8.634;2023-11-21T09:02:23;6.90;;;3.50;;
21480;SDS011;10902;48.158;8.634;2023-11-21T09:05:11;6.57;;;3.25;;
21480;SDS011;10902;48.158;8.634;2023-11-21T09:07:58;5.45;;;3.53;;
21480;SDS011;10902;48.158;8.634;2023-11-21T09:10:43;6.50;;;2.95;;
21480;SDS011;10902;48.158;8.634;2023-11-21T09:13:32;8.88;;;3.33;;
21480;SDS011;10902;48.158;8.634;2023-11-21T09:16:17;4.82;;;3.15;;
21480;SDS011;10902;48.158;8.634;2023-11-21T09:19:03;5.18;;;2.90;;
21480;SDS011;10902;48.158;8.634;2023-11-21T09:21:50;6.55;;;2.83;;
21480;SDS011;10902;48.158;8.634;2023-11-21T09:24:36;5.53;;;3.40;;
21480;SDS011;10902;48.158;8.634;2023-11-21T09:27:22;7.35;;;4.50;;
21480;SDS011;10902;48.158;8.634;2023-11-21T09:30:08;6.50;;;3.55;;
21480;SDS011;10902;48.158;8.634;2023-11-21T09:32:55;6.47;;;4.03;;
21480;SDS011;10902;48.158;8.634;2023-11-21T09:35:40;6.10;;;3.67;;
21480;SDS011;10902;48.158;8.634;2023-11-21T09:38:26;8.13;;;3.60;;
21480;SDS011;10902;48.158;8.634;2023-11-21T09:41:43;5.72;;;2.92;;
21480;SDS011;10902;48.158;8.634;2023-11-21T09:44:32;6.38;;;3.55;;
21480;SDS011;10902;48.158;8.634;2023-11-21T09:47:22;6.57;;;3.28;;
21480;SDS011;10902;48.158;8.634;2023-11-21T09:50:07;6.32;;;3.35;;
21480;SDS011;10902;48.158;8.634;2023-11-21T09:56:01;5.15;;;2.80;;
21480;SDS011;10902;48.158;8.634;2023-11-21T09:58:47;7.40;;;3.20;;
21480;SDS011;10902;48.158;8.634;2023-11-21T10:01:36;5.28;;;3.25;;
21480;SDS011;10902;48.158;8.634;2023-11-21T10:04:24;7.03;;;2.40;;
21480;SDS011;10902;48.158;8.634;2023-11-21T10:07:12;8.00;;;2.92;;
21480;SDS011;10902;48.158;8.634;2023-11-21T10:10:01;5.03;;;2.45;;
21480;SDS011;10902;48.158;8.634;2023-11-21T10:12:50;5.50;;;2.60;;
21480;SDS011;10902;48.158;8.634;2023-11-21T10:15:40;3.83;;;1.90;;
21480;SDS011;10902;48.158;8.634;2023-11-21T10:18:29;4.28;;;1.85;;
21480;SDS011;10902;48.158;8.634;2023-11-21T10:21:15;4.72;;;2.03;;
21480;SDS011;10902;48.158;8.634;2023-11-21T10:24:02;3.85;;;1.80;;
21480;SDS011;10902;48.158;8.634;2023-11-21T10:26:47;3.63;;;1.70;;
21480;SDS011;10902;48.158;8.634;2023-11-21T10:29:33;4.97;;;1.80;;
21480;SDS011;10902;48.158;8.634;2023-11-21T10:32:20;3.97;;;1.85;;
21480;SDS011;10902;48.158;8.634;2023-11-21T10:35:06;3.50;;;1.55;;
21480;SDS011;10902;48.158;8.634;2023-11-21T10:37:59;3.80;;;1.80;;
21480;SDS011;10902;48.158;8.634;2023-11-21T10:40:45;4.47;;;1.67;;
21480;SDS011;10902;48.158;8.634;2023-11-21T10:43:32;5.10;;;1.60;;
21480;SDS011;10902;48.158;8.634;2023-11-21T10:46:23;4.43;;;1.50;;
21480;SDS011;10902;48.158;8.634;2023-11-21T10:49:26;4.95;;;1.60;;
21480;SDS011;10902;48.158;8.634;2023-11-21T10:52:14;3.40;;;1.48;;
21480;SDS011;10902;48.158;8.634;2023-11-21T10:55:05;4.65;;;1.40;;
21480;SDS011;10902;48.158;8.634;2023-11-21T10:58:02;3.00;;;1.30;;
21480;SDS011;10902;48.158;8.634;2023-11-21T11:00:49;4.20;;;1.55;;
21480;SDS011;10902;48.158;8.634;2023-11-21T11:03:37;2.97;;;1.30;;
21480;SDS011;10902;48.158;8.634;2023-11-21T11:06:23;2.85;;;1.35;;
21480;SDS011;10902;48.158;8.634;2023-11-21T11:09:13;2.95;;;1.25;;
21480;SDS011;10902;48.158;8.634;2023-11-21T11:11:59;3.13;;;1.42;;
21480;SDS011;10902;48.158;8.634;2023-11-21T11:14:46;3.10;;;1.30;;
21480;SDS011;10902;48.158;8.634;2023-11-21T11:17:33;3.90;;;1.38;;
21480;SDS011;10902;48.158;8.634;2023-11-21T11:20:19;3.10;;;1.20;;
21480;SDS011;10902;48.158;8.634;2023-11-21T11:42:16;2.53;;;1.08;;
21480;SDS011;10902;48.158;8.634;2023-11-21T11:45:16;3.00;;;1.13;;
21480;SDS011;10902;48.158;8.634;2023-11-21T11:48:05;2.00;;;0.80;;
21480;SDS011;10902;48.158;8.634;2023-11-21T11:53:56;1.40;;;0.52;;
21480;SDS011;10902;48.158;8.634;2023-11-21T11:56:42;3.30;;;1.00;;
21480;SDS011;10902;48.158;8.634;2023-11-21T11:59:29;2.97;;;1.23;;
21480;SDS011;10902;48.158;8.634;2023-11-21T12:02:15;3.80;;;1.33;;
21480;SDS011;10902;48.158;8.634;2023-11-21T12:05:00;2.03;;;0.80;;
21480;SDS011;10902;48.158;8.634;2023-11-21T12:07:50;2.17;;;0.80;;
21480;SDS011;10902;48.158;8.634;2023-11-21T12:10:39;2.78;;;1.08;;
21480;SDS011;10902;48.158;8.634;2023-11-21T12:13:25;3.28;;;1.00;;
21480;SDS011;10902;48.158;8.634;2023-11-21T12:16:13;2.38;;;0.90;;
21480;SDS011;10902;48.158;8.634;2023-11-21T12:18:59;2.80;;;1.20;;
21480;SDS011;10902;48.158;8.634;2023-11-21T12:21:44;2.75;;;1.08;;
21480;SDS011;10902;48.158;8.634;2023-11-21T12:24:30;4.43;;;1.00;;
21480;SDS011;10902;48.158;8.634;2023-11-21T12:27:16;1.90;;;0.60;;
21480;SDS011;10902;48.158;8.634;2023-11-21T12:30:02;2.08;;;0.60;;
21480;SDS011;10902;48.158;8.634;2023-11-21T12:32:48;2.67;;;0.65;;
21480;SDS011;10902;48.158;8.634;2023-11-21T12:35:38;1.90;;;0.60;;
21480;SDS011;10902;48.158;8.634;2023-11-21T12:38:23;2.50;;;0.73;;
21480;SDS011;10902;48.158;8.634;2023-11-21T12:41:09;3.38;;;0.60;;
21480;SDS011;10902;48.158;8.634;2023-11-21T12:43:55;2.33;;;0.68;;
21480;SDS011;10902;48.158;8.634;2023-11-21T12:46:42;1.48;;;0.50;;
21480;SDS011;10902;48.158;8.634;2023-11-21T12:49:30;1.30;;;0.40;;
21480;SDS011;10902;48.158;8.634;2023-11-21T12:52:17;1.42;;;0.47;;
21480;SDS011;10902;48.158;8.634;2023-11-21T12:55:03;1.70;;;0.50;;
21480;SDS011;10902;48.158;8.634;2023-11-21T12:57:50;1.90;;;0.70;;
21480;SDS011;10902;48.158;8.634;2023-11-21T13:00:41;3.38;;;0.70;;
21480;SDS011;10902;48.158;8.634;2023-11-21T13:03:31;1.70;;;0.60;;
21480;SDS011;10902;48.158;8.634;2023-11-21T13:06:18;3.08;;;0.57;;
21480;SDS011;10902;48.158;8.634;2023-11-21T13:09:04;3.05;;;1.00;;
21480;SDS011;10902;48.158;8.634;2023-11-21T13:11:50;1.80;;;0.47;;
21480;SDS011;10902;48.158;8.634;2023-11-21T13:14:45;1.83;;;0.60;;
21480;SDS011;10902;48.158;8.634;2023-11-21T13:17:31;1.80;;;0.55;;
21480;SDS011;10902;48.158;8.634;2023-11-21T13:20:17;2.75;;;0.50;;
21480;SDS011;10902;48.158;8.634;2023-11-21T13:23:07;3.40;;;0.68;;
21480;SDS011;10902;48.158;8.634;2023-11-21T13:25:53;2.78;;;0.95;;
21480;SDS011;10902;48.158;8.634;2023-11-21T13:28:40;1.95;;;0.60;;
21480;SDS011;10902;48.158;8.634;2023-11-21T13:31:30;1.13;;;0.40;;
21480;SDS011;10902;48.158;8.634;2023-11-21T13:34:17;2.10;;;0.77;;
21480;SDS011;10902;48.158;8.634;2023-11-21T13:37:04;1.75;;;0.57;;
21480;SDS011;10902;48.158;8.634;2023-11-21T13:39:51;3.25;;;0.80;;
21480;SDS011;10902;48.158;8.634;2023-11-21T13:42:37;2.08;;;0.60;;
21480;SDS011;10902;48.158;8.634;2023-11-21T13:45:23;2.53;;;0.80;;
21480;SDS011;10902;48.158;8.634;2023-11-21T13:48:12;3.55;;;1.33;;
21480;SDS011;10902;48.158;8.634;2023-11-21T13:51:10;2.80;;;1.17;;
21480;SDS011;10902;48.158;8.634;2023-11-21T13:54:02;3.08;;;0.93;;
21480;SDS011;10902;48.158;8.634;2023-11-21T13:56:50;2.90;;;1.00;;
21480;SDS011;10902;48.158;8.634;2023-11-21T13:59:36;2.63;;;0.90;;
21480;SDS011;10902;48.158;8.634;2023-11-21T14:02:21;1.88;;;0.57;;
21480;SDS011;10902;48.158;8.634;2023-11-21T14:05:17;1.70;;;0.60;;
21480;SDS011;10902;48.158;8.634;2023-11-21T14:08:14;2.95;;;1.10;;
21480;SDS011;10902;48.158;8.634;2023-11-21T14:11:05;2.13;;;0.70;;
21480;SDS011;10902;48.158;8.634;2023-11-21T14:13:51;2.30;;;0.75;;
21480;SDS011;10902;48.158;8.634;2023-11-21T14:16:37;2.33;;;0.75;;
21480;SDS011;10902;48.158;8.634;2023-11-21T14:19:23;2.95;;;0.70;;
21480;SDS011;10902;48.158;8.634;2023-11-21T14:22:12;2.83;;;0.73;;
21480;SDS011;10902;48.158;8.634;2023-11-21T14:24:57;2.60;;;0.85;;
21480;SDS011;10902;48.158;8.634;2023-11-21T14:27:45;3.63;;;0.80;;
21480;SDS011;10902;48.158;8.634;2023-11-21T14:30:39;2.13;;;0.77;;
21480;SDS011;10902;48.158;8.634;2023-11-21T14:33:26;2.80;;;0.90;;
21480;SDS011;10902;48.158;8.634;2023-11-21T14:36:12;5.63;;;1.75;;
21480;SDS011;10902;48.158;8.634;2023-11-21T14:38:57;5.63;;;1.50;;
21480;SDS011;10902;48.158;8.634;2023-11-21T14:41:43;3.83;;;1.20;;
21480;SDS011;10902;48.158;8.634;2023-11-21T14:44:29;3.75;;;1.42;;
21480;SDS011;10902;48.158;8.634;2023-11-21T14:47:20;4.32;;;1.60;;
21480;SDS011;10902;48.158;8.634;2023-11-21T14:50:10;4.45;;;1.35;;
21480;SDS011;10902;48.158;8.634;2023-11-21T14:53:14;4.03;;;1.63;;
21480;SDS011;10902;48.158;8.634;2023-11-21T14:56:00;3.25;;;1.10;;
21480;SDS011;10902;48.158;8.634;2023-11-21T14:58:48;3.20;;;1.27;;
21480;SDS011;10902;48.158;8.634;2023-11-21T15:01:34;3.28;;;1.35;;
21480;SDS011;10902;48.158;8.634;2023-11-21T15:04:38;2.92;;;1.20;;
21480;SDS011;10902;48.158;8.634;2023-11-21T15:07:24;3.20;;;1.00;;
21480;SDS011;10902;48.158;8.634;2023-11-21T15:10:14;2.60;;;1.00;;
21480;SDS011;10902;48.158;8.634;2023-11-21T15:13:00;2.90;;;1.08;;
21480;SDS011;10902;48.158;8.634;2023-11-21T15:15:47;2.88;;;1.15;;
21480;SDS011;10902;48.158;8.634;2023-11-21T15:18:33;2.33;;;0.90;;
21480;SDS011;10902;48.158;8.634;2023-11-21T15:21:20;3.20;;;1.15;;
21480;SDS011;10902;48.158;8.634;2023-11-21T15:24:07;2.25;;;0.90;;
21480;SDS011;10902;48.158;8.634;2023-11-21T15:26:53;2.70;;;1.10;;
21480;SDS011;10902;48.158;8.634;2023-11-21T15:29:39;3.90;;;1.20;;
21480;SDS011;10902;48.158;8.634;2023-11-21T15:32:25;3.50;;;1.23;;
21480;SDS011;10902;48.158;8.634;2023-11-21T15:35:16;3.63;;;1.48;;
21480;SDS011;10902;48.158;8.634;2023-11-21T15:38:02;3.15;;;1.20;;
21480;SDS011;10902;48.158;8.634;2023-11-21T15:40:47;4.05;;;1.50;;
21480;SDS011;10902;48.158;8.634;2023-11-21T15:43:34;3.80;;;1.73;;
21480;SDS011;10902;48.158;8.634;2023-11-21T15:46:20;3.53;;;1.75;;
21480;SDS011;10902;48.158;8.634;2023-11-21T15:49:05;5.18;;;2.03;;
21480;SDS011;10902;48.158;8.634;2023-11-21T15:52:09;4.80;;;2.22;;
21480;SDS011;10902;48.158;8.634;2023-11-21T15:54:55;6.20;;;2.30;;
21480;SDS011;10902;48.158;8.634;2023-11-21T15:57:41;5.30;;;2.22;;
21480;SDS011;10902;48.158;8.634;2023-11-21T16:00:27;5.20;;;2.47;;
21480;SDS011;10902;48.158;8.634;2023-11-21T16:03:13;7.38;;;3.20;;
21480;SDS011;10902;48.158;8.634;2023-11-21T16:05:59;6.68;;;3.35;;
21480;SDS011;10902;48.158;8.634;2023-11-21T16:08:45;6.38;;;4.00;;
21480;SDS011;10902;48.158;8.634;2023-11-21T16:11:30;6.10;;;3.75;;
21480;SDS011;10902;48.158;8.634;2023-11-21T16:14:18;7.47;;;4.13;;
21480;SDS011;10902;48.158;8.634;2023-11-21T16:17:09;8.07;;;3.80;;
21480;SDS011;10902;48.158;8.634;2023-11-21T16:19:55;8.77;;;4.25;;
21480;SDS011;10902;48.158;8.634;2023-11-21T16:22:41;7.05;;;3.60;;
21480;SDS011;10902;48.158;8.634;2023-11-21T16:25:27;9.00;;;4.72;;
21480;SDS011;10902;48.158;8.634;2023-11-21T16:28:12;8.52;;;4.60;;
21480;SDS011;10902;48.158;8.634;2023-11-21T16:30:58;7.45;;;4.32;;
21480;SDS011;10902;48.158;8.634;2023-11-21T16:33:44;9.00;;;5.18;;
21480;SDS011;10902;48.158;8.634;2023-11-21T16:36:29;12.30;;;5.80;;
21480;SDS011;10902;48.158;8.634;2023-11-21T16:39:15;9.07;;;4.88;;
21480;SDS011;10902;48.158;8.634;2023-11-21T16:42:04;8.90;;;5.18;;
21480;SDS011;10902;48.158;8.634;2023-11-21T16:44:49;6.75;;;3.72;;
21480;SDS011;10902;48.158;8.634;2023-11-21T16:47:35;5.95;;;3.55;;
21480;SDS011;10902;48.158;8.634;2023-11-21T16:50:22;5.35;;;2.95;;
21480;SDS011;10902;48.158;8.634;2023-11-21T16:53:08;5.90;;;3.38;;
21480;SDS011;10902;48.158;8.634;2023-11-21T16:55:54;5.82;;;3.63;;
21480;SDS011;10902;48.158;8.634;2023-11-21T16:58:39;6.07;;;3.72;;
21480;SDS011;10902;48.158;8.634;2023-11-21T17:01:25;7.32;;;4.43;;
21480;SDS011;10902;48.158;8.634;2023-11-21T17:04:13;6.53;;;3.60;;
21480;SDS011;10902;48.158;8.634;2023-11-21T17:07:03;6.53;;;3.88;;
21480;SDS011;10902;48.158;8.634;2023-11-21T17:09:49;7.75;;;4.60;;
21480;SDS011;10902;48.158;8.634;2023-11-21T17:12:35;6.47;;;4.30;;